sensor_id;sensor_type;location;lat;lon;timestamp;P1;durP1;ratioP1;P2;durP2;ratioP2
32198;SDS011;19221;42.656;21.156;2023-06-14T00:01:50;21.88;;;14.98;;
32198;SDS011;19221;42.656;21.156;2023-06-14T00:04:15;19.70;;;14.45;;
32198;SDS011;19221;42.656;21.156;2023-06-14T00:06:46;25.15;;;16.00;;
32198;SDS011;19221;42.656;21.156;2023-06-14T00:09:12;25.08;;;15.93;;
32198;SDS011;19221;42.656;21.156;2023-06-14T00:14:08;18.10;;;14.65;;
32198;SDS011;19221;42.656;21.156;2023-06-14T00:16:34;19.45;;;14.38;;
32198;SDS011;19221;42.656;21.156;2023-06-14T00:19:01;20.50;;;14.27;;
32198;SDS011;19221;42.656;21.156;2023-06-14T00:21:29;16.63;;;11.95;;
32198;SDS011;19221;42.656;21.156;2023-06-14T00:23:55;14.30;;;10.35;;
32198;SDS011;19221;42.656;21.156;2023-06-14T00:26:21;18.33;;;12.32;;
32198;SDS011;19221;42.656;21.156;2023-06-14T00:28:46;17.35;;;12.88;;
32198;SDS011;19221;42.656;21.156;2023-06-14T00:31:12;19.88;;;13.85;;
32198;SDS011;19221;42.656;21.156;2023-06-14T00:33:37;17.25;;;12.93;;
32198;SDS011;19221;42.656;21.156;2023-06-14T00:36:03;17.25;;;13.52;;
32198;SDS011;19221;42.656;21.156;2023-06-14T00:38:29;18.40;;;13.80;;
32198;SDS011;19221;42.656;21.156;2023-06-14T00:40:55;16.88;;;13.25;;
32198;SDS011;19221;42.656;21.156;2023-06-14T00:43:20;20.23;;;14.80;;
32198;SDS011;19221;42.656;21.156;2023-06-14T00:45:46;22.83;;;15.82;;
32198;SDS011;19221;42.656;21.156;2023-06-14T00:48:11;23.13;;;15.57;;
32198;SDS011;19221;42.656;21.156;2023-06-14T00:50:39;26.48;;;16.73;;
32198;SDS011;19221;42.656;21.156;2023-06-14T00:53:06;23.45;;;16.05;;
32198;SDS011;19221;42.656;21.156;2023-06-14T00:55:31;20.67;;;15.82;;
32198;SDS011;19221;42.656;21.156;2023-06-14T00:57:58;27.13;;;15.90;;
32198;SDS011;19221;42.656;21.156;2023-06-14T01:00:24;26.38;;;15.82;;
32198;SDS011;19221;42.656;21.156;2023-06-14T01:02:50;21.17;;;15.20;;
32198;SDS011;19221;42.656;21.156;2023-06-14T01:05:15;21.17;;;13.98;;
32198;SDS011;19221;42.656;21.156;2023-06-14T01:15:30;20.20;;;14.95;;
32198;SDS011;19221;42.656;21.156;2023-06-14T01:17:56;21.23;;;14.88;;
32198;SDS011;19221;42.656;21.156;2023-06-14T01:20:28;20.50;;;15.00;;
32198;SDS011;19221;42.656;21.156;2023-06-14T01:22:54;19.30;;;14.30;;
32198;SDS011;19221;42.656;21.156;2023-06-14T01:25:20;19.88;;;14.07;;
32198;SDS011;19221;42.656;21.156;2023-06-14T01:27:57;18.95;;;13.98;;
32198;SDS011;19221;42.656;21.156;2023-06-14T01:30:24;19.00;;;13.48;;
32198;SDS011;19221;42.656;21.156;2023-06-14T01:32:51;19.45;;;12.38;;
32198;SDS011;19221;42.656;21.156;2023-06-14T01:35:17;19.88;;;13.48;;
32198;SDS011;19221;42.656;21.156;2023-06-14T01:37:43;18.48;;;12.40;;
32198;SDS011;19221;42.656;21.156;2023-06-14T01:40:09;16.00;;;12.65;;
32198;SDS011;19221;42.656;21.156;2023-06-14T01:42:36;16.30;;;12.13;;
32198;SDS011;19221;42.656;21.156;2023-06-14T01:45:03;15.88;;;12.57;;
32198;SDS011;19221;42.656;21.156;2023-06-14T01:47:30;22.92;;;12.68;;
32198;SDS011;19221;42.656;21.156;2023-06-14T01:49:56;22.50;;;12.63;;
32198;SDS011;19221;42.656;21.156;2023-06-14T01:52:22;17.08;;;12.88;;
32198;SDS011;19221;42.656;21.156;2023-06-14T01:54:52;15.25;;;12.55;;
32198;SDS011;19221;42.656;21.156;2023-06-14T01:57:18;20.33;;;13.55;;
32198;SDS011;19221;42.656;21.156;2023-06-14T01:59:44;19.38;;;13.00;;
32198;SDS011;19221;42.656;21.156;2023-06-14T02:02:14;12.77;;;9.65;;
32198;SDS011;19221;42.656;21.156;2023-06-14T02:04:40;13.80;;;9.80;;
32198;SDS011;19221;42.656;21.156;2023-06-14T02:07:06;14.43;;;10.02;;
32198;SDS011;19221;42.656;21.156;2023-06-14T02:09:31;17.33;;;10.45;;
32198;SDS011;19221;42.656;21.156;2023-06-14T02:11:57;13.15;;;9.95;;
32198;SDS011;19221;42.656;21.156;2023-06-14T02:14:23;15.98;;;10.35;;
32198;SDS011;19221;42.656;21.156;2023-06-14T02:16:48;15.68;;;10.50;;
32198;SDS011;19221;42.656;21.156;2023-06-14T02:19:18;20.80;;;12.88;;
32198;SDS011;19221;42.656;21.156;2023-06-14T02:21:44;14.27;;;10.40;;
32198;SDS011;19221;42.656;21.156;2023-06-14T02:24:11;16.27;;;10.63;;
32198;SDS011;19221;42.656;21.156;2023-06-14T02:26:37;12.13;;;9.05;;
32198;SDS011;19221;42.656;21.156;2023-06-14T02:29:09;14.77;;;8.88;;
32198;SDS011;19221;42.656;21.156;2023-06-14T02:31:37;11.13;;;8.95;;
32198;SDS011;19221;42.656;21.156;2023-06-14T02:34:03;14.68;;;9.25;;
32198;SDS011;19221;42.656;21.156;2023-06-14T02:36:29;14.93;;;9.98;;
32198;SDS011;19221;42.656;21.156;2023-06-14T02:38:57;14.63;;;9.60;;
32198;SDS011;19221;42.656;21.156;2023-06-14T02:41:23;23.48;;;10.45;;
32198;SDS011;19221;42.656;21.156;2023-06-14T02:43:49;19.13;;;10.45;;
32198;SDS011;19221;42.656;21.156;2023-06-14T02:46:15;18.60;;;10.93;;
32198;SDS011;19221;42.656;21.156;2023-06-14T02:48:41;16.73;;;10.73;;
32198;SDS011;19221;42.656;21.156;2023-06-14T02:51:06;14.32;;;10.52;;
32198;SDS011;19221;42.656;21.156;2023-06-14T02:53:33;18.35;;;11.38;;
32198;SDS011;19221;42.656;21.156;2023-06-14T02:55:59;15.20;;;10.82;;
32198;SDS011;19221;42.656;21.156;2023-06-14T02:58:26;14.18;;;9.90;;
32198;SDS011;19221;42.656;21.156;2023-06-14T03:00:52;12.25;;;7.43;;
32198;SDS011;19221;42.656;21.156;2023-06-14T03:03:21;10.93;;;7.30;;
32198;SDS011;19221;42.656;21.156;2023-06-14T03:05:47;7.45;;;6.43;;
32198;SDS011;19221;42.656;21.156;2023-06-14T03:08:15;9.77;;;6.85;;
32198;SDS011;19221;42.656;21.156;2023-06-14T03:10:42;11.60;;;6.43;;
32198;SDS011;19221;42.656;21.156;2023-06-14T03:13:08;9.13;;;6.85;;
32198;SDS011;19221;42.656;21.156;2023-06-14T03:15:36;12.90;;;7.05;;
32198;SDS011;19221;42.656;21.156;2023-06-14T03:18:01;9.73;;;6.90;;
32198;SDS011;19221;42.656;21.156;2023-06-14T03:20:27;8.00;;;6.25;;
32198;SDS011;19221;42.656;21.156;2023-06-14T03:22:55;9.43;;;6.43;;
32198;SDS011;19221;42.656;21.156;2023-06-14T03:25:20;7.03;;;5.55;;
32198;SDS011;19221;42.656;21.156;2023-06-14T03:27:47;8.85;;;6.15;;
32198;SDS011;19221;42.656;21.156;2023-06-14T03:30:13;10.02;;;6.88;;
32198;SDS011;19221;42.656;21.156;2023-06-14T03:32:38;11.43;;;6.28;;
32198;SDS011;19221;42.656;21.156;2023-06-14T03:35:04;20.13;;;12.05;;
32198;SDS011;19221;42.656;21.156;2023-06-14T03:37:30;10.15;;;6.57;;
32198;SDS011;19221;42.656;21.156;2023-06-14T03:39:56;10.82;;;7.05;;
32198;SDS011;19221;42.656;21.156;2023-06-14T03:42:22;12.02;;;7.13;;
32198;SDS011;19221;42.656;21.156;2023-06-14T03:44:47;11.93;;;7.45;;
32198;SDS011;19221;42.656;21.156;2023-06-14T03:47:13;15.13;;;8.10;;
32198;SDS011;19221;42.656;21.156;2023-06-14T03:49:38;11.40;;;7.50;;
32198;SDS011;19221;42.656;21.156;2023-06-14T03:52:04;15.82;;;8.70;;
32198;SDS011;19221;42.656;21.156;2023-06-14T03:54:30;19.17;;;8.32;;
32198;SDS011;19221;42.656;21.156;2023-06-14T03:56:59;13.63;;;7.50;;
32198;SDS011;19221;42.656;21.156;2023-06-14T03:59:24;13.55;;;7.13;;
32198;SDS011;19221;42.656;21.156;2023-06-14T04:01:51;9.07;;;6.60;;
32198;SDS011;19221;42.656;21.156;2023-06-14T04:04:16;11.20;;;6.70;;
32198;SDS011;19221;42.656;21.156;2023-06-14T04:06:43;10.25;;;6.47;;
32198;SDS011;19221;42.656;21.156;2023-06-14T04:09:09;11.98;;;6.40;;
32198;SDS011;19221;42.656;21.156;2023-06-14T04:11:35;10.82;;;6.15;;
32198;SDS011;19221;42.656;21.156;2023-06-14T04:14:01;9.10;;;5.75;;
32198;SDS011;19221;42.656;21.156;2023-06-14T04:16:27;12.73;;;6.47;;
32198;SDS011;19221;42.656;21.156;2023-06-14T04:18:54;11.73;;;6.88;;
32198;SDS011;19221;42.656;21.156;2023-06-14T04:21:20;10.25;;;7.20;;
32198;SDS011;19221;42.656;21.156;2023-06-14T04:23:46;15.18;;;7.82;;
32198;SDS011;19221;42.656;21.156;2023-06-14T04:26:12;13.70;;;6.93;;
32198;SDS011;19221;42.656;21.156;2023-06-14T04:28:37;8.15;;;6.30;;
32198;SDS011;19221;42.656;21.156;2023-06-14T04:31:06;17.65;;;7.40;;
32198;SDS011;19221;42.656;21.156;2023-06-14T04:33:36;15.70;;;7.68;;
32198;SDS011;19221;42.656;21.156;2023-06-14T04:36:11;11.07;;;7.05;;
32198;SDS011;19221;42.656;21.156;2023-06-14T04:38:43;8.48;;;6.50;;
32198;SDS011;19221;42.656;21.156;2023-06-14T04:41:10;9.93;;;6.70;;
32198;SDS011;19221;42.656;21.156;2023-06-14T04:43:37;11.73;;;7.05;;
32198;SDS011;19221;42.656;21.156;2023-06-14T04:46:04;12.00;;;7.43;;
32198;SDS011;19221;42.656;21.156;2023-06-14T04:48:31;10.38;;;6.88;;
32198;SDS011;19221;42.656;21.156;2023-06-14T04:50:56;14.77;;;7.43;;
32198;SDS011;19221;42.656;21.156;2023-06-14T04:53:22;14.65;;;8.65;;
32198;SDS011;19221;42.656;21.156;2023-06-14T04:55:48;15.02;;;7.88;;
32198;SDS011;19221;42.656;21.156;2023-06-14T04:58:15;17.85;;;8.40;;
32198;SDS011;19221;42.656;21.156;2023-06-14T05:00:41;13.15;;;9.45;;
32198;SDS011;19221;42.656;21.156;2023-06-14T05:03:09;15.85;;;10.50;;
32198;SDS011;19221;42.656;21.156;2023-06-14T05:05:34;23.10;;;11.52;;
32198;SDS011;19221;42.656;21.156;2023-06-14T05:08:00;22.20;;;11.20;;
32198;SDS011;19221;42.656;21.156;2023-06-14T05:10:26;17.42;;;10.93;;
32198;SDS011;19221;42.656;21.156;2023-06-14T05:12:51;19.20;;;10.40;;
32198;SDS011;19221;42.656;21.156;2023-06-14T05:15:18;15.93;;;10.60;;
32198;SDS011;19221;42.656;21.156;2023-06-14T05:17:45;18.55;;;10.88;;
32198;SDS011;19221;42.656;21.156;2023-06-14T05:20:13;17.15;;;10.80;;
32198;SDS011;19221;42.656;21.156;2023-06-14T05:22:39;23.00;;;11.32;;
32198;SDS011;19221;42.656;21.156;2023-06-14T05:25:04;17.77;;;10.05;;
32198;SDS011;19221;42.656;21.156;2023-06-14T05:27:30;16.88;;;11.35;;
32198;SDS011;19221;42.656;21.156;2023-06-14T05:29:56;23.55;;;12.32;;
32198;SDS011;19221;42.656;21.156;2023-06-14T05:32:24;19.92;;;11.48;;
32198;SDS011;19221;42.656;21.156;2023-06-14T05:34:49;18.90;;;11.32;;
32198;SDS011;19221;42.656;21.156;2023-06-14T05:37:15;17.58;;;11.40;;
32198;SDS011;19221;42.656;21.156;2023-06-14T05:39:42;20.75;;;11.60;;
32198;SDS011;19221;42.656;21.156;2023-06-14T05:42:08;17.48;;;12.35;;
32198;SDS011;19221;42.656;21.156;2023-06-14T05:44:34;13.98;;;9.27;;
32198;SDS011;19221;42.656;21.156;2023-06-14T05:46:59;15.32;;;9.60;;
32198;SDS011;19221;42.656;21.156;2023-06-14T05:49:25;16.40;;;9.95;;
32198;SDS011;19221;42.656;21.156;2023-06-14T05:51:50;18.00;;;11.38;;
32198;SDS011;19221;42.656;21.156;2023-06-14T05:54:16;19.48;;;12.13;;
32198;SDS011;19221;42.656;21.156;2023-06-14T05:56:42;23.25;;;11.15;;
32198;SDS011;19221;42.656;21.156;2023-06-14T05:59:07;29.85;;;13.43;;
32198;SDS011;19221;42.656;21.156;2023-06-14T06:01:33;23.58;;;13.52;;
32198;SDS011;19221;42.656;21.156;2023-06-14T06:04:02;22.15;;;11.68;;
32198;SDS011;19221;42.656;21.156;2023-06-14T06:06:28;21.50;;;13.80;;
32198;SDS011;19221;42.656;21.156;2023-06-14T06:08:54;20.15;;;13.13;;
32198;SDS011;19221;42.656;21.156;2023-06-14T06:11:19;23.60;;;12.68;;
32198;SDS011;19221;42.656;21.156;2023-06-14T06:13:45;16.33;;;12.65;;
32198;SDS011;19221;42.656;21.156;2023-06-14T06:16:11;17.95;;;12.45;;
32198;SDS011;19221;42.656;21.156;2023-06-14T06:18:37;20.73;;;12.98;;
32198;SDS011;19221;42.656;21.156;2023-06-14T06:21:03;17.52;;;12.15;;
32198;SDS011;19221;42.656;21.156;2023-06-14T06:23:29;22.63;;;12.45;;
32198;SDS011;19221;42.656;21.156;2023-06-14T06:25:55;18.90;;;11.57;;
32198;SDS011;19221;42.656;21.156;2023-06-14T06:28:20;18.15;;;11.88;;
32198;SDS011;19221;42.656;21.156;2023-06-14T06:30:46;18.48;;;12.85;;
32198;SDS011;19221;42.656;21.156;2023-06-14T06:33:12;16.27;;;11.90;;
32198;SDS011;19221;42.656;21.156;2023-06-14T06:35:38;20.23;;;12.27;;
32198;SDS011;19221;42.656;21.156;2023-06-14T06:38:04;31.17;;;15.27;;
32198;SDS011;19221;42.656;21.156;2023-06-14T06:40:29;19.83;;;12.90;;
32198;SDS011;19221;42.656;21.156;2023-06-14T06:42:55;24.08;;;13.35;;
32198;SDS011;19221;42.656;21.156;2023-06-14T06:45:21;25.70;;;13.82;;
32198;SDS011;19221;42.656;21.156;2023-06-14T06:47:48;21.98;;;13.40;;
32198;SDS011;19221;42.656;21.156;2023-06-14T06:50:14;23.05;;;13.30;;
32198;SDS011;19221;42.656;21.156;2023-06-14T06:52:40;24.52;;;13.50;;
32198;SDS011;19221;42.656;21.156;2023-06-14T06:55:05;27.08;;;13.68;;
32198;SDS011;19221;42.656;21.156;2023-06-14T06:57:31;25.40;;;15.23;;
32198;SDS011;19221;42.656;21.156;2023-06-14T06:59:57;17.05;;;12.95;;
32198;SDS011;19221;42.656;21.156;2023-06-14T07:02:23;23.92;;;14.75;;
32198;SDS011;19221;42.656;21.156;2023-06-14T07:04:48;20.88;;;13.70;;
32198;SDS011;19221;42.656;21.156;2023-06-14T07:07:14;20.60;;;13.73;;
32198;SDS011;19221;42.656;21.156;2023-06-14T07:09:40;23.92;;;14.90;;
32198;SDS011;19221;42.656;21.156;2023-06-14T07:12:07;26.13;;;13.95;;
32198;SDS011;19221;42.656;21.156;2023-06-14T07:14:33;29.55;;;15.88;;
32198;SDS011;19221;42.656;21.156;2023-06-14T07:16:59;22.30;;;13.77;;
32198;SDS011;19221;42.656;21.156;2023-06-14T07:19:24;29.35;;;14.82;;
32198;SDS011;19221;42.656;21.156;2023-06-14T07:21:50;20.35;;;13.52;;
32198;SDS011;19221;42.656;21.156;2023-06-14T07:24:16;24.35;;;15.02;;
32198;SDS011;19221;42.656;21.156;2023-06-14T07:26:41;26.83;;;16.15;;
32198;SDS011;19221;42.656;21.156;2023-06-14T07:29:07;23.98;;;14.20;;
32198;SDS011;19221;42.656;21.156;2023-06-14T07:31:33;29.05;;;15.68;;
32198;SDS011;19221;42.656;21.156;2023-06-14T07:33:59;29.48;;;18.10;;
32198;SDS011;19221;42.656;21.156;2023-06-14T07:36:25;26.25;;;16.92;;
32198;SDS011;19221;42.656;21.156;2023-06-14T07:38:50;32.40;;;16.40;;
32198;SDS011;19221;42.656;21.156;2023-06-14T07:41:16;25.60;;;16.63;;
32198;SDS011;19221;42.656;21.156;2023-06-14T07:43:42;24.80;;;15.60;;
32198;SDS011;19221;42.656;21.156;2023-06-14T07:46:07;22.67;;;16.05;;
32198;SDS011;19221;42.656;21.156;2023-06-14T07:48:34;20.67;;;15.32;;
32198;SDS011;19221;42.656;21.156;2023-06-14T07:51:00;21.27;;;15.82;;
32198;SDS011;19221;42.656;21.156;2023-06-14T07:53:26;21.30;;;14.80;;
32198;SDS011;19221;42.656;21.156;2023-06-14T07:55:52;21.75;;;15.30;;
32198;SDS011;19221;42.656;21.156;2023-06-14T07:58:17;19.02;;;13.77;;
32198;SDS011;19221;42.656;21.156;2023-06-14T08:00:43;20.35;;;14.00;;
32198;SDS011;19221;42.656;21.156;2023-06-14T08:03:09;26.58;;;14.30;;
32198;SDS011;19221;42.656;21.156;2023-06-14T08:05:35;18.70;;;13.90;;
32198;SDS011;19221;42.656;21.156;2023-06-14T08:08:00;23.70;;;15.80;;
32198;SDS011;19221;42.656;21.156;2023-06-14T08:10:26;22.98;;;13.55;;
32198;SDS011;19221;42.656;21.156;2023-06-14T08:12:51;22.95;;;14.43;;
32198;SDS011;19221;42.656;21.156;2023-06-14T08:15:17;21.48;;;12.45;;
32198;SDS011;19221;42.656;21.156;2023-06-14T08:17:43;24.05;;;12.68;;
32198;SDS011;19221;42.656;21.156;2023-06-14T08:20:09;19.80;;;13.18;;
32198;SDS011;19221;42.656;21.156;2023-06-14T08:22:36;24.52;;;13.23;;
32198;SDS011;19221;42.656;21.156;2023-06-14T08:25:01;19.20;;;12.15;;
32198;SDS011;19221;42.656;21.156;2023-06-14T08:27:27;25.25;;;15.25;;
32198;SDS011;19221;42.656;21.156;2023-06-14T08:29:53;21.20;;;12.90;;
32198;SDS011;19221;42.656;21.156;2023-06-14T08:32:19;21.50;;;13.70;;
32198;SDS011;19221;42.656;21.156;2023-06-14T08:34:44;24.10;;;14.45;;
32198;SDS011;19221;42.656;21.156;2023-06-14T08:37:10;24.88;;;13.65;;
32198;SDS011;19221;42.656;21.156;2023-06-14T08:39:36;22.70;;;12.88;;
32198;SDS011;19221;42.656;21.156;2023-06-14T08:42:02;19.38;;;13.15;;
32198;SDS011;19221;42.656;21.156;2023-06-14T08:44:29;27.15;;;14.32;;
32198;SDS011;19221;42.656;21.156;2023-06-14T08:46:55;20.88;;;12.73;;
32198;SDS011;19221;42.656;21.156;2023-06-14T08:49:22;19.98;;;12.48;;
32198;SDS011;19221;42.656;21.156;2023-06-14T08:51:49;16.05;;;11.18;;
32198;SDS011;19221;42.656;21.156;2023-06-14T08:54:17;20.58;;;13.75;;
32198;SDS011;19221;42.656;21.156;2023-06-14T08:56:46;18.70;;;12.75;;
32198;SDS011;19221;42.656;21.156;2023-06-14T08:59:13;16.85;;;12.85;;
32198;SDS011;19221;42.656;21.156;2023-06-14T09:01:40;19.42;;;12.48;;
32198;SDS011;19221;42.656;21.156;2023-06-14T09:04:06;16.13;;;11.55;;
32198;SDS011;19221;42.656;21.156;2023-06-14T09:06:32;16.95;;;11.90;;
32198;SDS011;19221;42.656;21.156;2023-06-14T09:08:58;19.63;;;11.75;;
32198;SDS011;19221;42.656;21.156;2023-06-14T09:11:24;17.77;;;12.07;;
32198;SDS011;19221;42.656;21.156;2023-06-14T09:13:51;24.33;;;14.15;;
32198;SDS011;19221;42.656;21.156;2023-06-14T09:16:17;17.38;;;11.98;;
32198;SDS011;19221;42.656;21.156;2023-06-14T09:18:43;21.52;;;14.02;;
32198;SDS011;19221;42.656;21.156;2023-06-14T09:21:12;15.05;;;11.65;;
32198;SDS011;19221;42.656;21.156;2023-06-14T09:23:40;24.35;;;14.30;;
32198;SDS011;19221;42.656;21.156;2023-06-14T09:26:15;22.77;;;13.88;;
32198;SDS011;19221;42.656;21.156;2023-06-14T09:28:45;20.15;;;12.82;;
32198;SDS011;19221;42.656;21.156;2023-06-14T09:31:11;16.40;;;12.40;;
32198;SDS011;19221;42.656;21.156;2023-06-14T09:33:37;16.75;;;11.77;;
32198;SDS011;19221;42.656;21.156;2023-06-14T09:36:03;18.38;;;12.40;;
32198;SDS011;19221;42.656;21.156;2023-06-14T09:38:29;21.63;;;13.02;;
32198;SDS011;19221;42.656;21.156;2023-06-14T09:40:58;22.15;;;13.75;;
32198;SDS011;19221;42.656;21.156;2023-06-14T09:43:24;25.80;;;15.13;;
32198;SDS011;19221;42.656;21.156;2023-06-14T09:45:51;20.52;;;11.25;;
32198;SDS011;19221;42.656;21.156;2023-06-14T09:48:17;25.95;;;16.98;;
32198;SDS011;19221;42.656;21.156;2023-06-14T09:50:45;23.88;;;16.38;;
32198;SDS011;19221;42.656;21.156;2023-06-14T09:53:11;30.75;;;17.52;;
32198;SDS011;19221;42.656;21.156;2023-06-14T09:55:37;32.97;;;18.67;;
32198;SDS011;19221;42.656;21.156;2023-06-14T09:58:06;28.20;;;16.60;;
32198;SDS011;19221;42.656;21.156;2023-06-14T10:00:32;29.25;;;15.20;;
32198;SDS011;19221;42.656;21.156;2023-06-14T10:03:00;20.30;;;12.35;;
32198;SDS011;19221;42.656;21.156;2023-06-14T10:05:27;19.77;;;13.18;;
32198;SDS011;19221;42.656;21.156;2023-06-14T10:08:00;20.67;;;13.32;;
32198;SDS011;19221;42.656;21.156;2023-06-14T10:10:29;26.40;;;15.07;;
32198;SDS011;19221;42.656;21.156;2023-06-14T10:12:56;18.45;;;11.73;;
32198;SDS011;19221;42.656;21.156;2023-06-14T10:21:01;18.42;;;11.98;;
32198;SDS011;19221;42.656;21.156;2023-06-14T10:23:30;18.10;;;12.57;;
32198;SDS011;19221;42.656;21.156;2023-06-14T10:25:58;17.23;;;11.70;;
32198;SDS011;19221;42.656;21.156;2023-06-14T10:28:25;14.40;;;11.48;;
32198;SDS011;19221;42.656;21.156;2023-06-14T10:31:04;16.60;;;11.15;;
32198;SDS011;19221;42.656;21.156;2023-06-14T10:33:31;15.27;;;10.13;;
32198;SDS011;19221;42.656;21.156;2023-06-14T10:36:42;11.73;;;9.38;;
32198;SDS011;19221;42.656;21.156;2023-06-14T10:38:42;14.77;;;10.05;;
32198;SDS011;19221;42.656;21.156;2023-06-14T10:41:08;19.90;;;9.70;;
32198;SDS011;19221;42.656;21.156;2023-06-14T10:43:34;12.55;;;9.57;;
32198;SDS011;19221;42.656;21.156;2023-06-14T10:48:41;14.02;;;9.63;;
32198;SDS011;19221;42.656;21.156;2023-06-14T10:51:20;13.82;;;9.55;;
32198;SDS011;19221;42.656;21.156;2023-06-14T10:53:49;15.20;;;8.48;;
32198;SDS011;19221;42.656;21.156;2023-06-14T10:56:30;20.58;;;12.20;;
32198;SDS011;19221;42.656;21.156;2023-06-14T11:01:41;20.35;;;10.90;;
32198;SDS011;19221;42.656;21.156;2023-06-14T11:04:11;17.02;;;10.18;;
32198;SDS011;19221;42.656;21.156;2023-06-14T11:06:49;12.57;;;9.63;;
32198;SDS011;19221;42.656;21.156;2023-06-14T11:11:54;14.45;;;9.73;;
32198;SDS011;19221;42.656;21.156;2023-06-14T11:14:21;11.07;;;8.32;;
32198;SDS011;19221;42.656;21.156;2023-06-14T11:16:48;11.85;;;8.23;;
32198;SDS011;19221;42.656;21.156;2023-06-14T11:19:13;15.30;;;9.80;;
32198;SDS011;19221;42.656;21.156;2023-06-14T11:21:39;20.73;;;10.68;;
32198;SDS011;19221;42.656;21.156;2023-06-14T11:24:09;15.10;;;9.55;;
32198;SDS011;19221;42.656;21.156;2023-06-14T11:26:37;24.55;;;13.70;;
32198;SDS011;19221;42.656;21.156;2023-06-14T11:29:02;23.25;;;11.80;;
32198;SDS011;19221;42.656;21.156;2023-06-14T11:31:28;13.98;;;9.50;;
32198;SDS011;19221;42.656;21.156;2023-06-14T11:33:54;14.65;;;10.13;;
32198;SDS011;19221;42.656;21.156;2023-06-14T11:36:21;10.82;;;8.45;;
32198;SDS011;19221;42.656;21.156;2023-06-14T11:38:46;12.10;;;8.18;;
32198;SDS011;19221;42.656;21.156;2023-06-14T11:41:12;13.93;;;8.25;;
32198;SDS011;19221;42.656;21.156;2023-06-14T11:43:39;14.43;;;8.77;;
32198;SDS011;19221;42.656;21.156;2023-06-14T11:46:11;18.45;;;8.45;;
32198;SDS011;19221;42.656;21.156;2023-06-14T11:48:41;30.00;;;9.63;;
32198;SDS011;19221;42.656;21.156;2023-06-14T11:51:07;12.98;;;8.75;;
32198;SDS011;19221;42.656;21.156;2023-06-14T11:53:32;15.70;;;9.02;;
32198;SDS011;19221;42.656;21.156;2023-06-14T11:55:58;12.80;;;8.82;;
32198;SDS011;19221;42.656;21.156;2023-06-14T11:58:25;11.15;;;8.60;;
32198;SDS011;19221;42.656;21.156;2023-06-14T12:00:51;11.82;;;8.25;;
32198;SDS011;19221;42.656;21.156;2023-06-14T12:03:17;12.68;;;7.55;;
32198;SDS011;19221;42.656;21.156;2023-06-14T12:05:43;13.38;;;7.25;;
32198;SDS011;19221;42.656;21.156;2023-06-14T12:08:09;16.15;;;8.80;;
32198;SDS011;19221;42.656;21.156;2023-06-14T12:10:41;15.02;;;8.18;;
32198;SDS011;19221;42.656;21.156;2023-06-14T12:13:09;13.63;;;8.07;;
32198;SDS011;19221;42.656;21.156;2023-06-14T12:15:35;11.32;;;7.22;;
32198;SDS011;19221;42.656;21.156;2023-06-14T12:18:00;14.00;;;8.27;;
32198;SDS011;19221;42.656;21.156;2023-06-14T12:20:30;21.88;;;12.60;;
32198;SDS011;19221;42.656;21.156;2023-06-14T12:22:57;15.60;;;8.88;;
32198;SDS011;19221;42.656;21.156;2023-06-14T12:25:30;13.13;;;7.78;;
32198;SDS011;19221;42.656;21.156;2023-06-14T12:28:03;18.05;;;11.23;;
32198;SDS011;19221;42.656;21.156;2023-06-14T12:30:29;11.27;;;7.78;;
32198;SDS011;19221;42.656;21.156;2023-06-14T12:32:55;22.15;;;13.02;;
32198;SDS011;19221;42.656;21.156;2023-06-14T12:35:20;13.80;;;7.07;;
32198;SDS011;19221;42.656;21.156;2023-06-14T12:37:46;11.65;;;7.80;;
32198;SDS011;19221;42.656;21.156;2023-06-14T12:40:12;19.80;;;8.07;;
32198;SDS011;19221;42.656;21.156;2023-06-14T12:42:38;8.48;;;6.15;;
32198;SDS011;19221;42.656;21.156;2023-06-14T12:45:04;11.07;;;6.32;;
32198;SDS011;19221;42.656;21.156;2023-06-14T12:47:30;15.13;;;6.47;;
32198;SDS011;19221;42.656;21.156;2023-06-14T12:49:56;14.25;;;7.03;;
32198;SDS011;19221;42.656;21.156;2023-06-14T12:52:21;14.15;;;7.60;;
32198;SDS011;19221;42.656;21.156;2023-06-14T12:54:47;11.40;;;6.07;;
32198;SDS011;19221;42.656;21.156;2023-06-14T12:57:13;8.65;;;6.60;;
32198;SDS011;19221;42.656;21.156;2023-06-14T12:59:38;10.07;;;5.95;;
32198;SDS011;19221;42.656;21.156;2023-06-14T13:02:11;7.65;;;5.85;;
32198;SDS011;19221;42.656;21.156;2023-06-14T13:04:37;6.93;;;5.45;;
32198;SDS011;19221;42.656;21.156;2023-06-14T13:07:03;9.65;;;6.18;;
32198;SDS011;19221;42.656;21.156;2023-06-14T13:09:29;8.05;;;5.75;;
32198;SDS011;19221;42.656;21.156;2023-06-14T13:11:55;9.45;;;6.50;;
32198;SDS011;19221;42.656;21.156;2023-06-14T13:14:20;11.82;;;7.32;;
32198;SDS011;19221;42.656;21.156;2023-06-14T13:16:46;10.45;;;7.28;;
32198;SDS011;19221;42.656;21.156;2023-06-14T13:19:12;10.52;;;6.60;;
32198;SDS011;19221;42.656;21.156;2023-06-14T13:21:37;8.45;;;7.05;;
32198;SDS011;19221;42.656;21.156;2023-06-14T13:24:03;10.82;;;7.13;;
32198;SDS011;19221;42.656;21.156;2023-06-14T13:26:29;21.08;;;9.05;;
32198;SDS011;19221;42.656;21.156;2023-06-14T13:28:55;21.75;;;10.48;;
32198;SDS011;19221;42.656;21.156;2023-06-14T13:31:20;14.50;;;8.82;;
32198;SDS011;19221;42.656;21.156;2023-06-14T13:33:46;8.98;;;6.30;;
32198;SDS011;19221;42.656;21.156;2023-06-14T13:36:11;7.35;;;6.07;;
32198;SDS011;19221;42.656;21.156;2023-06-14T13:38:37;10.48;;;6.13;;
32198;SDS011;19221;42.656;21.156;2023-06-14T13:41:03;9.45;;;6.68;;
32198;SDS011;19221;42.656;21.156;2023-06-14T13:43:28;12.63;;;8.15;;
32198;SDS011;19221;42.656;21.156;2023-06-14T13:45:54;14.43;;;9.07;;
32198;SDS011;19221;42.656;21.156;2023-06-14T13:48:20;12.27;;;6.70;;
32198;SDS011;19221;42.656;21.156;2023-06-14T13:50:45;11.52;;;6.60;;
32198;SDS011;19221;42.656;21.156;2023-06-14T13:53:11;14.10;;;6.40;;
32198;SDS011;19221;42.656;21.156;2023-06-14T13:55:37;8.60;;;5.53;;
32198;SDS011;19221;42.656;21.156;2023-06-14T13:58:03;8.65;;;5.10;;
32198;SDS011;19221;42.656;21.156;2023-06-14T14:00:29;10.13;;;6.00;;
32198;SDS011;19221;42.656;21.156;2023-06-14T14:02:55;8.20;;;5.72;;
32198;SDS011;19221;42.656;21.156;2023-06-14T14:05:22;7.35;;;5.30;;
32198;SDS011;19221;42.656;21.156;2023-06-14T14:07:54;10.60;;;5.20;;
32198;SDS011;19221;42.656;21.156;2023-06-14T14:10:20;10.15;;;5.13;;
32198;SDS011;19221;42.656;21.156;2023-06-14T14:12:45;11.65;;;6.93;;
32198;SDS011;19221;42.656;21.156;2023-06-14T14:15:11;9.38;;;6.68;;
32198;SDS011;19221;42.656;21.156;2023-06-14T14:17:40;15.80;;;8.40;;
32198;SDS011;19221;42.656;21.156;2023-06-14T14:20:06;10.27;;;6.35;;
32198;SDS011;19221;42.656;21.156;2023-06-14T14:22:32;11.20;;;6.55;;
32198;SDS011;19221;42.656;21.156;2023-06-14T14:24:58;10.88;;;6.50;;
32198;SDS011;19221;42.656;21.156;2023-06-14T14:27:23;6.05;;;4.72;;
32198;SDS011;19221;42.656;21.156;2023-06-14T14:29:49;11.15;;;5.78;;
32198;SDS011;19221;42.656;21.156;2023-06-14T14:32:15;11.73;;;6.60;;
32198;SDS011;19221;42.656;21.156;2023-06-14T14:34:40;9.60;;;5.60;;
32198;SDS011;19221;42.656;21.156;2023-06-14T14:37:06;8.88;;;5.82;;